PAFAPAUN

Guest
Details From PAFA - Fairbanks Intl
To PAUN - Unalakleet
Flight Number -
Tags Generated
Created
Modified
Stats Distance 341 nm / 631 km
Max Altitude 0 ft / 0 m
Waypoints 3
Social Downloads 2
Likes 0
Share VATSIM

Download

Looking for another format? Having issues loading an existing format? Contact us
Advertisement - Login to hide

Notes

Generated

Route

PAFA UNK PAUN

ID Type Via Altitude Latitude Longitude Leg Dist Tot Dist Heading (true) Name
O PAFA APT - 0 ft / 0 m 64.81606˚ -147.84656˚ - 0 nm - -
UNK VOR - 0 ft / 0 m 63.89194˚ -160.68433˚ 337 nm 337 nm 266° / 255° UNALAKLEET VOR-DME
O PAUN APT - 0 ft / 0 m 63.88345˚ -160.79903˚ 3 nm 340 nm 261° / 260° -

Altitude Profile

Advertisement - Login to hide

Weather


0- 5 10 15 20 25 30 35+ Temperature / ° C

Clouds and Precipitation
Forecast for 2018-05-22 00:00 UTC. Updated an hour ago

Ground ~20,000 ft ~40,000 ft Winds

PAFA

Details ICAO PAFA (FAI)
Name FAIRBANKS INTL
Region USA (Alaska)
Timezone America/Anchorage (UTC-8.0)
Stats Elevation 434 ft / 132 m (AMSL)
Location 64.813909° -147.855392°
Runways 3
Magnetic Variation 17.328° E

METAR

PAFA 212353Z VRB05KT 10SM -RA SCT065 BKN090 BKN200 17/06 A2936

Decode

TAF

TAF PAFA 212332Z 2200/2306 10006G14KT P6SM VCSH SCT050 BKN090 BKN200 TEMPO 2200/2202 4SM -SHRA BKN030 BKN050 FM220200 34004KT P6SM FEW050 SCT090 BKN200 FM221600 24004KT P6SM VCSH BKN050 BKN100 FM222000 23004KT P6SM -SHRA SCT025 OVC050

Decode

Departure Runways

ID Width Length Bearing (true) Bearing (mag) Surface Threshold Offset Overrun Length
01 75 ft / 23 m 2,892 ft / 881 m 38.04° 20.71° Gravel 0 ft / 0 m 0 ft / 0 m
01L 150 ft / 46 m 11,767 ft / 3,587 m 38.00° 20.67° Asphalt 750 ft / 229 m 0 ft / 0 m
01R 100 ft / 30 m 6,482 ft / 1,976 m 38.01° 20.68° Asphalt 0 ft / 0 m 0 ft / 0 m
19 75 ft / 23 m 2,892 ft / 881 m 218.05° 200.72° Gravel 0 ft / 0 m 0 ft / 0 m
19L 100 ft / 30 m 6,482 ft / 1,976 m 218.04° 200.71° Asphalt 0 ft / 0 m 0 ft / 0 m
19R 150 ft / 46 m 11,767 ft / 3,587 m 218.04° 200.71° Asphalt 750 ft / 229 m 0 ft / 0 m

PAUN

Details ICAO PAUN (UNK)
Name Unalakleet
Region USA (Alaska)
Timezone America/Anchorage (UTC-8.0)
Stats Elevation 68 ft / 21 m (AMSL)
Location 63.886590° -160.796931°
Runways 2
Magnetic Variation 12.026° E

METAR

PAUN 212356Z AUTO 35012KT 10SM OVC055 12/04 A2950 RMK AO2 SLP993 60000 T01170044 10117 20056 56002

Decode

TAF

TAF PAUN 212332Z 2200/2224 29013KT P6SM BKN070 OVC080 FM220800 28008KT P6SM VCSH FEW025 SCT040 BKN090 FM221400 24004KT P6SM FEW040 SCT090

Decode

Destination Runways

ID Width Length Bearing (true) Bearing (mag) Surface Threshold Offset Overrun Length
15 151 ft / 46 m 5,990 ft / 1,826 m 164.15° 152.12° Asphalt 0 ft / 0 m 499 ft / 152 m
26 79 ft / 24 m 1,993 ft / 608 m 278.43° 266.40° Asphalt 0 ft / 0 m 0 ft / 0 m
33 151 ft / 46 m 5,990 ft / 1,826 m 344.16° 332.13° Asphalt 0 ft / 0 m 0 ft / 0 m
8 79 ft / 24 m 1,993 ft / 608 m 98.42° 86.39° Asphalt 0 ft / 0 m 0 ft / 0 m